Time;durP1;ratioP1;P1;durP2;ratioP2;P2;SDS_P1;SDS_P2;PMS_P1;PMS_P2;Temp;Humidity;BMP_temperature;BMP_pressure;BME280_temperature;BME280_humidity;BME280_pressure;Samples;Min_cycle;Max_cycle;Signal;HPM_P1;HPM_P2
2021/07/14 04:01:22;;;;;;;17.27;15.73;;;20.70;99.90;;;;;;5581437;23;20600;-67
2021/07/14 04:03:50;;;;;;;18.23;16.53;;;20.60;99.90;;;;;;4986167;28;20965;-67
2021/07/14 04:06:18;;;;;;;19.33;17.57;;;20.60;99.90;;;;;;4988968;28;20472;-66
2021/07/14 04:08:47;;;;;;;19.17;17.37;;;20.60;99.90;;;;;;4985401;28;20467;-68
2021/07/14 04:11:14;;;;;;;19.27;17.10;;;20.50;99.90;;;;;;4980892;28;20488;-67
2021/07/14 04:13:42;;;;;;;18.40;16.70;;;20.50;99.90;;;;;;4965170;28;20488;-66
2021/07/14 04:16:09;;;;;;;19.60;17.60;;;20.50;99.90;;;;;;4972087;28;20518;-66
2021/07/14 04:18:37;;;;;;;19.87;17.90;;;20.50;99.90;;;;;;4963883;28;20932;-66
2021/07/14 04:21:04;;;;;;;21.53;18.13;;;20.50;99.90;;;;;;4972592;28;20570;-66
2021/07/14 04:23:31;;;;;;;18.00;16.20;;;20.50;99.90;;;;;;4962147;28;20460;-66
2021/07/14 04:25:58;;;;;;;22.70;19.03;;;20.40;99.90;;;;;;4972464;28;20471;-67
2021/07/14 04:28:25;;;;;;;20.30;17.87;;;20.30;99.90;;;;;;4967292;28;20488;-66
2021/07/14 04:30:51;;;;;;;20.27;18.23;;;20.10;99.90;;;;;;4967430;28;20494;-67
2021/07/14 04:33:18;;;;;;;21.03;18.97;;;20.10;99.90;;;;;;4967887;28;20480;-67
2021/07/14 04:35:47;;;;;;;21.30;19.23;;;20.00;99.90;;;;;;4959015;28;20526;-67
2021/07/14 04:38:13;;;;;;;22.07;19.87;;;20.00;99.90;;;;;;4966159;28;20472;-69
2021/07/14 04:40:40;;;;;;;23.30;20.80;;;20.00;99.90;;;;;;4966042;28;20514;-69
2021/07/14 04:43:07;;;;;;;22.43;20.13;;;20.00;99.90;;;;;;4970490;28;20598;-69
2021/07/14 04:45:33;;;;;;;22.90;20.70;;;20.00;99.90;;;;;;4963307;28;20795;-68
2021/07/14 04:48:01;;;;;;;27.30;22.70;;;20.00;99.90;;;;;;4962730;28;20528;-69
2021/07/14 04:50:28;;;;;;;25.00;21.90;;;20.00;99.90;;;;;;4965854;28;20488;-68
2021/07/14 04:52:56;;;;;;;23.27;20.90;;;20.10;99.90;;;;;;4954753;28;20534;-68
2021/07/14 04:55:23;;;;;;;26.50;23.47;;;20.10;99.90;;;;;;4947972;28;20488;-69
2021/07/14 04:57:49;;;;;;;23.37;20.87;;;20.10;99.90;;;;;;4973921;28;20518;-69
2021/07/14 05:00:17;;;;;;;24.30;21.60;;;20.10;99.90;;;;;;4964392;28;20473;-69
2021/07/14 05:02:43;;;;;;;27.33;24.40;;;20.20;99.90;;;;;;4954107;28;20583;-68
2021/07/14 05:05:12;;;;;;;24.37;21.97;;;20.20;99.90;;;;;;4966592;28;20460;-69
2021/07/14 05:07:39;;;;;;;25.87;23.17;;;20.30;99.90;;;;;;4954490;29;20876;-69
2021/07/14 05:10:09;;;;;;;26.13;22.53;;;20.30;99.90;;;;;;4965885;28;20469;-69
2021/07/14 05:12:36;;;;;;;22.63;20.50;;;20.20;99.90;;;;;;4958639;28;20500;-69
2021/07/14 05:15:03;;;;;;;23.23;20.63;;;20.10;99.90;;;;;;4958845;28;20481;-69
2021/07/14 05:17:30;;;;;;;25.30;22.63;;;20.00;99.90;;;;;;4963142;28;20611;-70
2021/07/14 05:19:56;;;;;;;28.47;24.60;;;20.10;99.90;;;;;;4968317;28;20936;-68
2021/07/14 05:22:24;;;;;;;27.50;23.57;;;20.20;99.90;;;;;;4964171;28;20480;-69
2021/07/14 05:24:51;;;;;;;28.50;22.23;;;20.20;99.90;;;;;;4953446;28;20467;-70
2021/07/14 05:27:19;;;;;;;26.80;23.80;;;20.30;99.90;;;;;;4960718;28;20467;-70
2021/07/14 05:29:46;;;;;;;25.67;22.83;;;20.20;99.90;;;;;;4959224;28;20642;-69
2021/07/14 05:32:13;;;;;;;25.90;23.10;;;20.10;99.90;;;;;;4959198;28;21003;-69
2021/07/14 05:34:39;;;;;;;29.10;23.33;;;20.10;99.90;;;;;;4961776;28;20485;-69
2021/07/14 05:37:06;;;;;;;26.53;23.63;;;20.10;99.90;;;;;;4958292;28;20506;-69
2021/07/14 05:39:32;;;;;;;27.17;24.20;;;20.10;99.90;;;;;;4970858;28;20478;-69
2021/07/14 05:41:59;;;;;;;25.93;23.20;;;20.10;99.90;;;;;;4968757;28;21082;-69
2021/07/14 05:44:27;;;;;;;29.17;24.30;;;20.10;99.90;;;;;;4954980;28;20506;-68
2021/07/14 05:46:54;;;;;;;28.60;23.60;;;20.10;99.90;;;;;;4966275;28;20952;-69
2021/07/14 05:49:20;;;;;;;27.40;24.47;;;20.10;99.90;;;;;;4960271;28;20532;-70
2021/07/14 05:51:47;;;;;;;27.63;24.63;;;20.10;99.90;;;;;;4972111;28;20499;-72
2021/07/14 05:54:14;;;;;;;27.93;24.27;;;20.10;99.90;;;;;;4958432;28;20483;-70
2021/07/14 05:56:40;;;;;;;26.73;23.63;;;20.10;99.90;;;;;;4972827;28;20471;-69
2021/07/14 05:59:07;;;;;;;24.83;22.33;;;20.10;99.90;;;;;;4965373;28;20464;-69
2021/07/14 06:01:37;;;;;;;26.80;23.97;;;20.00;99.90;;;;;;4964569;28;20499;-69
2021/07/14 06:04:04;;;;;;;28.67;24.00;;;20.10;99.90;;;;;;4965976;28;20459;-69
2021/07/14 06:06:31;;;;;;;27.67;23.63;;;20.10;99.90;;;;;;4959184;28;20469;-70
2021/07/14 06:08:58;;;;;;;28.20;23.80;;;20.20;99.90;;;;;;4956863;29;20656;-67
2021/07/14 06:11:25;;;;;;;26.70;23.93;;;20.20;99.90;;;;;;4957129;28;20575;-65
2021/07/14 06:13:52;;;;;;;26.17;23.07;;;20.20;99.90;;;;;;4953285;29;20495;-66
2021/07/14 06:16:19;;;;;;;26.03;23.00;;;20.20;99.90;;;;;;4957896;28;20560;-67
2021/07/14 06:18:47;;;;;;;26.70;23.77;;;20.20;99.90;;;;;;4958593;28;20519;-67
2021/07/14 06:21:14;;;;;;;27.23;24.40;;;20.20;99.90;;;;;;4958396;28;20484;-66
2021/07/14 06:23:40;;;;;;;25.50;22.93;;;20.20;99.90;;;;;;4966203;28;20463;-70
2021/07/14 06:26:07;;;;;;;26.20;23.43;;;20.30;99.90;;;;;;4966866;28;20588;-68
2021/07/14 06:28:34;;;;;;;25.17;22.47;;;20.30;99.90;;;;;;4964424;28;20464;-68
2021/07/14 06:31:00;;;;;;;25.67;21.97;;;20.40;99.90;;;;;;4970351;28;20477;-66
2021/07/14 06:33:28;;;;;;;25.27;22.73;;;20.50;99.90;;;;;;4967184;28;20540;-66
2021/07/14 06:35:56;;;;;;;25.07;22.57;;;20.60;99.90;;;;;;4967361;28;20498;-68
2021/07/14 06:38:23;;;;;;;22.40;20.30;;;20.90;99.90;;;;;;4966273;28;20464;-68
2021/07/14 06:40:50;;;;;;;20.27;18.43;;;21.20;99.90;;;;;;4973000;28;20506;-68
2021/07/14 06:43:18;;;;;;;18.40;16.77;;;21.40;99.90;;;;;;4974721;28;20482;-68
2021/07/14 06:45:47;;;;;;;18.33;16.50;;;21.60;99.90;;;;;;4975879;28;20558;-70
2021/07/14 06:48:14;;;;;;;17.60;16.00;;;21.80;99.90;;;;;;4960044;28;20476;-68
2021/07/14 06:50:41;;;;;;;16.50;15.17;;;21.90;99.90;;;;;;4958663;28;20484;-68
2021/07/14 06:53:10;;;;;;;15.73;14.27;;;22.20;99.90;;;;;;4961589;28;20544;-69
2021/07/14 06:55:37;;;;;;;15.77;14.43;;;22.40;99.90;;;;;;4956474;29;20485;-69
2021/07/14 06:58:05;;;;;;;14.13;13.03;;;22.50;99.90;;;;;;4957970;28;20469;-68
2021/07/14 07:00:35;;;;;;;15.60;14.30;;;22.50;99.90;;;;;;4963302;28;20850;-67
2021/07/14 07:03:02;;;;;;;17.57;14.80;;;22.60;99.90;;;;;;4957271;28;20477;-67
2021/07/14 07:05:28;;;;;;;15.27;13.93;;;22.80;99.90;;;;;;4958900;28;20472;-67
2021/07/14 07:07:55;;;;;;;15.33;14.03;;;22.70;99.90;;;;;;4976924;28;20920;-67
2021/07/14 07:10:23;;;;;;;15.10;14.00;;;22.50;99.90;;;;;;4962048;28;20479;-66
2021/07/14 07:12:49;;;;;;;16.27;14.97;;;22.40;99.90;;;;;;4964460;28;20496;-68
2021/07/14 07:15:18;;;;;;;15.80;14.30;;;22.70;99.90;;;;;;4965482;28;20547;-66
2021/07/14 07:17:45;;;;;;;14.57;13.37;;;22.90;99.90;;;;;;4961023;28;20500;-67
2021/07/14 07:20:14;;;;;;;15.60;14.40;;;23.00;99.90;;;;;;4961431;28;21027;-67
2021/07/14 07:22:41;;;;;;;15.70;14.40;;;23.00;99.90;;;;;;4966005;28;20579;-67
2021/07/14 07:25:08;;;;;;;16.40;15.10;;;23.10;99.90;;;;;;4959521;28;20504;-68
2021/07/14 07:27:38;;;;;;;14.30;13.20;;;23.20;99.90;;;;;;4963134;28;20460;-67
2021/07/14 07:30:06;;;;;;;14.67;13.37;;;23.40;99.90;;;;;;4970476;28;20806;-66
2021/07/14 07:32:33;;;;;;;14.30;13.30;;;23.40;99.90;;;;;;4971708;28;20479;-66
2021/07/14 07:35:00;;;;;;;14.27;13.07;;;23.60;99.90;;;;;;4971903;28;20480;-66
2021/07/14 07:37:27;;;;;;;13.70;12.40;;;23.90;99.90;;;;;;4969657;28;20476;-66
2021/07/14 07:39:53;;;;;;;12.83;11.93;;;24.20;99.90;;;;;;4964639;28;20879;-66
2021/07/14 07:42:20;;;;;;;13.37;11.87;;;24.90;99.90;;;;;;4976027;28;20484;-65
2021/07/14 07:44:48;;;;;;;12.10;11.00;;;25.10;99.90;;;;;;4955750;28;20461;-66
2021/07/14 07:47:16;;;;;;;11.73;10.83;;;25.10;99.90;;;;;;4962732;28;20473;-67
2021/07/14 07:49:45;;;;;;;11.27;10.57;;;25.90;99.90;;;;;;4962901;28;20505;-67
2021/07/14 07:52:12;;;;;;;10.37;9.60;;;26.30;99.90;;;;;;4969001;28;20570;-65
2021/07/14 07:54:39;;;;;;;12.23;11.13;;;26.40;99.90;;;;;;4961501;28;20556;-65
2021/07/14 07:57:06;;;;;;;11.10;10.50;;;26.40;99.90;;;;;;4955272;29;20483;-66
2021/07/14 07:59:34;;;;;;;12.20;11.40;;;26.60;99.90;;;;;;4963503;28;20577;-65
2021/07/14 08:02:02;;;;;;;11.80;11.10;;;26.50;99.90;;;;;;4974079;28;20500;-66
2021/07/14 08:04:29;;;;;;;11.70;10.83;;;26.80;99.90;;;;;;4974628;28;20466;-66
2021/07/14 08:06:56;;;;;;;11.57;10.80;;;27.00;99.90;;;;;;4974396;28;20466;-66
2021/07/14 08:09:22;;;;;;;10.77;10.03;;;27.50;99.90;;;;;;4974097;28;20465;-66
2021/07/14 08:11:49;;;;;;;12.70;11.80;;;27.90;99.90;;;;;;4973802;28;20487;-66
2021/07/14 08:14:17;;;;;;;11.63;10.93;;;27.50;99.90;;;;;;4966913;28;20581;-66
2021/07/14 08:16:44;;;;;;;12.17;11.33;;;27.10;99.90;;;;;;4954625;29;20557;-65
2021/07/14 08:19:12;;;;;;;13.23;12.33;;;26.60;99.90;;;;;;4955005;29;20530;-65
2021/07/14 08:21:39;;;;;;;15.03;13.57;;;26.30;99.90;;;;;;4954823;29;20491;-65
2021/07/14 08:24:06;;;;;;;13.57;12.57;;;26.00;99.90;;;;;;4942874;29;20515;-66
2021/07/14 08:26:32;;;;;;;15.27;14.10;;;26.10;99.90;;;;;;4935132;29;20496;-66
2021/07/14 08:28:59;;;;;;;15.57;14.03;;;25.80;99.90;;;;;;4966223;28;20858;-66
2021/07/14 08:31:26;;;;;;;14.50;13.50;;;25.60;99.90;;;;;;4973735;28;20511;-66
2021/07/14 08:33:52;;;;;;;14.47;13.17;;;26.10;99.90;;;;;;4973538;28;20905;-67
2021/07/14 08:36:20;;;;;;;15.50;14.20;;;26.00;99.90;;;;;;4973522;28;20522;-67
2021/07/14 08:38:47;;;;;;;14.57;13.47;;;25.70;99.90;;;;;;4973701;28;20475;-66
2021/07/14 08:41:17;;;;;;;15.50;14.30;;;25.40;99.90;;;;;;4973062;28;20480;-67
2021/07/14 08:43:45;;;;;;;15.93;14.73;;;25.30;99.90;;;;;;4971049;28;20467;-66
2021/07/14 08:46:12;;;;;;;13.93;12.93;;;25.40;99.90;;;;;;4956680;28;20462;-67
2021/07/14 08:48:38;;;;;;;16.13;14.73;;;25.30;99.90;;;;;;4935173;29;20516;-67
2021/07/14 08:51:05;;;;;;;15.33;14.13;;;25.30;99.90;;;;;;4934124;29;20857;-66
2021/07/14 08:53:34;;;;;;;16.53;15.23;;;25.10;99.90;;;;;;4970604;28;20482;-67
2021/07/14 08:56:02;;;;;;;16.23;14.83;;;25.00;99.90;;;;;;4972629;28;20579;-66
2021/07/14 08:58:29;;;;;;;15.80;14.50;;;25.00;99.90;;;;;;4973544;28;20969;-68
2021/07/14 09:00:58;;;;;;;14.83;13.63;;;25.00;99.90;;;;;;4958598;28;20504;-67
2021/07/14 09:03:28;;;;;;;16.30;14.90;;;25.00;99.90;;;;;;4952772;28;20552;-68
2021/07/14 09:05:55;;;;;;;15.70;14.40;;;25.00;99.90;;;;;;4953929;29;20987;-67
2021/07/14 09:08:22;;;;;;;16.37;14.87;;;24.90;99.90;;;;;;4954264;29;20893;-67
2021/07/14 09:10:50;;;;;;;17.40;15.77;;;24.80;99.90;;;;;;4952918;29;20495;-68
2021/07/14 09:13:17;;;;;;;18.20;16.60;;;24.70;99.90;;;;;;4954216;29;20467;-66
2021/07/14 09:15:47;;;;;;;17.63;16.30;;;24.40;99.90;;;;;;4957028;28;20475;-67
2021/07/14 09:18:15;;;;;;;16.30;14.93;;;24.40;99.90;;;;;;4973507;28;20463;-67
2021/07/14 09:20:43;;;;;;;16.73;15.23;;;24.30;99.90;;;;;;4973584;28;20591;-67
2021/07/14 09:23:12;;;;;;;17.20;15.53;;;24.30;99.90;;;;;;4973042;28;20467;-65
2021/07/14 09:25:42;;;;;;;17.20;15.90;;;24.30;99.90;;;;;;4972559;28;20558;-64
2021/07/14 09:28:10;;;;;;;15.80;14.43;;;24.50;99.90;;;;;;4973609;28;20841;-64
2021/07/14 09:30:39;;;;;;;16.60;15.13;;;24.50;99.90;;;;;;4972886;28;20983;-64
2021/07/14 09:33:08;;;;;;;17.30;15.90;;;24.60;99.90;;;;;;4971018;28;20480;-63
2021/07/14 09:35:38;;;;;;;16.40;15.10;;;24.90;99.90;;;;;;4972896;28;20523;-64
2021/07/14 09:38:10;;;;;;;16.57;14.97;;;25.20;99.90;;;;;;4973441;28;20492;-65
2021/07/14 09:40:38;;;;;;;14.57;13.50;;;25.30;99.90;;;;;;4972394;28;20530;-64
2021/07/14 09:43:11;;;;;;;15.70;14.60;;;25.40;99.90;;;;;;4975329;28;20474;-64
2021/07/14 09:45:40;;;;;;;15.30;14.20;;;25.60;99.90;;;;;;4976885;28;20493;-64
2021/07/14 09:48:09;;;;;;;16.70;15.33;;;25.80;99.90;;;;;;4974151;28;20470;-67
2021/07/14 09:50:38;;;;;;;14.13;13.13;;;25.70;99.90;;;;;;4957066;29;21044;-66
2021/07/14 09:53:07;;;;;;;15.70;14.50;;;25.80;99.90;;;;;;4940087;29;20528;-67
2021/07/14 09:55:35;;;;;;;15.40;14.20;;;25.90;99.90;;;;;;4937480;29;20990;-67
2021/07/14 09:58:17;;;;;;;15.87;14.67;;;25.90;99.90;;;;;;4938444;29;20532;-67
2021/07/14 10:00:49;;;;;;;14.67;13.63;;;25.90;99.90;;;;;;4941497;28;20504;-69
2021/07/14 10:03:21;;;;;;;15.10;13.80;;;26.00;99.90;;;;;;4940483;28;20525;-69
2021/07/14 10:05:48;;;;;;;15.27;14.17;;;26.10;99.90;;;;;;4972980;28;20460;-69
2021/07/14 10:08:18;;;;;;;13.90;12.87;;;26.20;99.90;;;;;;4953487;29;20514;-69
2021/07/14 10:10:45;;;;;;;14.93;13.80;;;26.30;99.90;;;;;;4966431;28;20480;-66
2021/07/14 10:13:13;;;;;;;15.63;14.10;;;26.30;99.90;;;;;;4966553;28;20831;-67
2021/07/14 10:15:42;;;;;;;15.53;14.33;;;26.30;99.90;;;;;;4978460;28;20550;-67
2021/07/14 10:18:14;;;;;;;15.80;14.50;;;26.30;99.90;;;;;;4976601;28;20491;-66
2021/07/14 10:20:44;;;;;;;15.23;13.97;;;26.30;99.90;;;;;;4975030;28;20601;-67
2021/07/14 10:23:13;;;;;;;15.87;14.67;;;26.40;99.90;;;;;;4968074;28;20466;-67
2021/07/14 10:25:42;;;;;;;15.03;13.90;;;26.50;99.90;;;;;;4952342;29;20559;-66
2021/07/14 10:28:12;;;;;;;15.87;14.27;;;26.50;99.90;;;;;;4956988;29;20579;-66
2021/07/14 10:30:41;;;;;;;15.60;14.50;;;26.50;99.90;;;;;;4956390;28;20990;-66
2021/07/14 10:33:10;;;;;;;15.33;14.23;;;26.30;99.90;;;;;;4956846;29;20468;-66
2021/07/14 10:35:39;;;;;;;16.93;15.73;;;26.20;99.90;;;;;;4957173;29;20501;-66
2021/07/14 10:38:12;;;;;;;15.10;13.73;;;25.90;99.90;;;;;;4973193;28;20514;-67
2021/07/14 10:40:39;;;;;;;16.03;14.63;;;25.80;99.90;;;;;;4975210;28;20486;-67
2021/07/14 10:43:05;;;;;;;15.47;14.27;;;25.90;99.90;;;;;;4975783;28;20979;-66
2021/07/14 10:45:33;;;;;;;17.43;15.90;;;26.00;99.90;;;;;;4975664;28;20959;-66
2021/07/14 10:48:01;;;;;;;16.10;14.90;;;26.20;99.90;;;;;;4975803;28;20538;-66
2021/07/14 10:50:28;;;;;;;16.70;14.90;;;26.50;99.90;;;;;;4975572;28;20546;-66
2021/07/14 10:52:55;;;;;;;16.20;14.00;;;26.60;99.90;;;;;;4973379;28;20527;-67
2021/07/14 10:55:25;;;;;;;17.57;16.17;;;26.70;99.90;;;;;;4963834;28;21078;-66
2021/07/14 10:57:55;;;;;;;16.93;15.53;;;26.70;99.90;;;;;;4973124;28;20470;-67
2021/07/14 11:00:22;;;;;;;17.50;16.00;;;26.70;99.90;;;;;;4965579;28;20487;-66
2021/07/14 11:02:50;;;;;;;16.67;15.10;;;26.80;99.90;;;;;;4969196;28;20963;-66
2021/07/14 11:05:33;;;;;;;17.10;15.80;;;26.90;99.90;;;;;;4972910;28;20476;-66
2021/07/14 11:08:00;;;;;;;16.63;15.27;;;26.90;99.90;;;;;;4961697;28;20523;-65
2021/07/14 11:10:30;;;;;;;15.80;14.70;;;26.90;99.90;;;;;;4972864;28;20465;-65
2021/07/14 11:12:58;;;;;;;17.67;16.07;;;27.20;99.90;;;;;;4959852;28;20832;-65
2021/07/14 11:15:30;;;;;;;16.40;14.90;;;27.30;99.90;;;;;;4974669;28;20898;-65
2021/07/14 11:17:57;;;;;;;16.07;14.87;;;27.30;99.90;;;;;;4961200;28;20932;-64
2021/07/14 11:20:40;;;;;;;14.83;13.73;;;27.20;99.90;;;;;;4955671;28;20469;-64
2021/07/14 11:23:19;;;;;;;16.17;14.73;;;27.20;99.90;;;;;;4966223;28;20512;-65
2021/07/14 11:25:50;;;;;;;17.30;15.53;;;27.10;99.90;;;;;;4952940;28;20485;-65
2021/07/14 11:28:18;;;;;;;15.70;14.23;;;27.10;99.90;;;;;;4975109;28;20526;-65
2021/07/14 11:30:48;;;;;;;16.43;15.03;;;27.20;99.90;;;;;;4964079;28;20492;-66
2021/07/14 11:33:33;;;;;;;16.17;14.77;;;27.30;99.90;;;;;;4969430;28;20464;-66
2021/07/14 11:36:05;;;;;;;14.50;13.40;;;27.40;99.90;;;;;;4964640;28;20483;-65
2021/07/14 11:38:42;;;;;;;15.60;14.30;;;27.50;99.90;;;;;;4955416;29;20465;-66
2021/07/14 11:41:19;;;;;;;15.57;14.27;;;27.50;99.90;;;;;;4960603;28;21077;-66
2021/07/14 11:43:47;;;;;;;15.17;13.77;;;27.40;99.90;;;;;;4955230;29;20551;-65
2021/07/14 11:46:16;;;;;;;15.10;14.00;;;27.30;99.90;;;;;;4958901;28;20542;-65
2021/07/14 11:48:47;;;;;;;15.53;14.37;;;27.20;99.90;;;;;;4964394;28;20946;-67
2021/07/14 11:51:24;;;;;;;15.07;13.90;;;27.00;99.90;;;;;;4952457;28;20489;-67
2021/07/14 11:53:52;;;;;;;14.97;13.67;;;27.00;99.90;;;;;;4953133;28;20460;-66
2021/07/14 11:56:22;;;;;;;15.30;13.93;;;27.00;99.90;;;;;;4973023;28;20487;-66
2021/07/14 11:58:58;;;;;;;13.53;12.53;;;27.00;99.90;;;;;;4972038;28;20830;-66
2021/07/14 12:02:05;;;;;;;12.97;11.97;;;27.10;99.90;;;;;;4955434;28;20551;-66
2021/07/14 12:04:40;;;;;;;14.30;13.13;;;27.10;99.90;;;;;;4926861;28;20459;-66
2021/07/14 12:07:13;;;;;;;13.90;12.80;;;27.00;99.90;;;;;;4955280;29;20467;-67
2021/07/14 12:09:47;;;;;;;15.23;13.93;;;27.00;99.90;;;;;;4966121;28;20846;-66
2021/07/14 12:12:17;;;;;;;12.37;11.47;;;26.90;99.90;;;;;;4954158;29;21667;-68
2021/07/14 12:14:45;;;;;;;15.60;14.20;;;26.80;99.90;;;;;;4964186;28;20952;-66
2021/07/14 12:17:13;;;;;;;14.17;13.07;;;26.60;99.90;;;;;;4973500;28;20494;-65
2021/07/14 12:19:42;;;;;;;14.07;12.97;;;26.80;99.90;;;;;;4961923;28;20465;-65
2021/07/14 12:22:13;;;;;;;13.90;12.80;;;26.70;99.90;;;;;;4963473;28;20493;-66
2021/07/14 12:24:43;;;;;;;15.20;14.00;;;26.80;99.90;;;;;;4953313;28;20813;-66
2021/07/14 12:27:20;;;;;;;14.60;13.40;;;26.70;99.90;;;;;;4953225;28;20995;-68
2021/07/14 12:29:53;;;;;;;15.00;13.40;;;26.70;99.90;;;;;;4951387;28;20814;-65
2021/07/14 12:32:35;;;;;;;14.37;13.27;;;26.70;99.90;;;;;;4954800;28;20488;-66
2021/07/14 12:35:05;;;;;;;14.03;12.93;;;26.60;99.90;;;;;;4954004;29;20465;-65
2021/07/14 12:37:34;;;;;;;13.53;12.50;;;26.60;99.90;;;;;;4969523;28;20484;-65
2021/07/14 12:40:00;;;;;;;11.83;11.03;;;26.60;99.90;;;;;;4953648;28;20508;-65
2021/07/14 12:42:27;;;;;;;13.87;12.67;;;26.60;99.90;;;;;;4937136;28;20550;-68
2021/07/14 12:44:54;;;;;;;12.87;11.77;;;26.80;99.90;;;;;;4971098;28;20516;-67
2021/07/14 12:47:22;;;;;;;11.50;10.50;;;26.80;99.90;;;;;;4955750;28;20968;-66
2021/07/14 12:49:51;;;;;;;13.43;12.23;;;26.70;99.90;;;;;;4971970;28;20460;-65
2021/07/14 12:52:20;;;;;;;14.00;12.70;;;26.80;99.90;;;;;;4972211;28;20480;-66
2021/07/14 12:54:49;;;;;;;13.43;12.13;;;26.70;99.90;;;;;;4972087;28;20948;-65
2021/07/14 12:57:21;;;;;;;12.80;11.80;;;26.60;99.90;;;;;;4972116;28;20487;-65
2021/07/14 12:59:58;;;;;;;12.40;11.20;;;26.60;99.90;;;;;;4959249;28;20868;-65
2021/07/14 13:02:27;;;;;;;12.33;11.27;;;26.60;99.90;;;;;;4973022;28;20495;-66
2021/07/14 13:04:55;;;;;;;12.07;11.13;;;26.50;99.90;;;;;;4956622;28;20460;-68
2021/07/14 13:07:25;;;;;;;12.30;11.20;;;26.40;99.90;;;;;;4953990;28;20465;-65
2021/07/14 13:09:54;;;;;;;11.40;10.40;;;26.40;99.90;;;;;;4968095;28;20827;-65
2021/07/14 13:12:21;;;;;;;15.23;14.03;;;26.40;99.90;;;;;;4972737;28;20822;-66
2021/07/14 13:14:50;;;;;;;13.50;12.50;;;26.40;99.90;;;;;;4966270;28;20468;-64
2021/07/14 13:17:28;;;;;;;15.03;13.73;;;26.40;99.90;;;;;;4956604;28;20496;-64
2021/07/14 13:20:05;;;;;;;15.43;14.20;;;26.40;99.90;;;;;;4971265;28;20530;-65
2021/07/14 13:22:32;;;;;;;15.43;14.07;;;26.60;99.90;;;;;;4938538;29;20492;-65
2021/07/14 13:25:11;;;;;;;14.90;13.80;;;26.60;99.90;;;;;;4965192;28;20933;-66
2021/07/14 13:27:38;;;;;;;12.63;11.73;;;26.40;99.90;;;;;;4964352;28;20463;-67
2021/07/14 13:30:26;;;;;;;14.40;13.30;;;26.40;99.90;;;;;;4961320;28;20461;-65
2021/07/14 13:33:05;;;;;;;14.07;12.97;;;26.50;99.90;;;;;;4955689;28;20491;-65
2021/07/14 13:35:34;;;;;;;14.63;13.53;;;26.40;99.90;;;;;;4954363;28;20782;-66
2021/07/14 13:38:01;;;;;;;13.00;11.90;;;26.40;99.90;;;;;;4950165;28;20563;-65
2021/07/14 13:40:30;;;;;;;14.70;13.60;;;26.30;99.90;;;;;;4956270;28;20493;-65
2021/07/14 13:42:58;;;;;;;15.97;14.77;;;26.40;99.90;;;;;;4956093;28;20953;-65
2021/07/14 13:45:31;;;;;;;14.57;13.37;;;26.40;99.90;;;;;;4956730;28;20850;-65
2021/07/14 13:47:58;;;;;;;15.53;14.33;;;26.30;99.90;;;;;;4956861;28;20576;-65
2021/07/14 13:50:26;;;;;;;15.37;14.27;;;26.50;99.90;;;;;;4956776;28;20464;-66
2021/07/14 13:53:03;;;;;;;15.87;14.47;;;26.50;99.90;;;;;;4956849;28;20964;-66
2021/07/14 13:55:32;;;;;;;15.73;14.40;;;26.60;99.90;;;;;;4947151;28;20453;-66
2021/07/14 13:58:10;;;;;;;17.40;16.00;;;26.60;99.90;;;;;;4955995;28;20515;-66
2021/07/14 14:00:37;;;;;;;16.20;14.97;;;26.70;99.90;;;;;;4949705;28;21039;-65
2021/07/14 14:03:05;;;;;;;15.53;14.20;;;26.90;99.90;;;;;;4957468;28;20511;-68
2021/07/14 14:05:32;;;;;;;17.47;15.90;;;27.00;99.90;;;;;;4955968;28;20523;-68
2021/07/14 14:08:08;;;;;;;15.30;13.90;;;27.00;99.90;;;;;;4957093;29;20476;-68
2021/07/14 14:10:42;;;;;;;17.77;16.27;;;27.10;99.90;;;;;;4955977;28;21249;-66
2021/07/14 14:13:13;;;;;;;17.67;16.33;;;27.20;99.90;;;;;;4956549;28;20613;-67
2021/07/14 14:15:41;;;;;;;17.13;15.63;;;27.40;99.90;;;;;;4961308;28;20467;-66
2021/07/14 14:18:08;;;;;;;16.63;15.00;;;27.50;99.90;;;;;;4956075;28;20558;-68
2021/07/14 14:20:36;;;;;;;16.47;15.07;;;27.60;99.90;;;;;;4956518;28;20492;-68
2021/07/14 14:23:06;;;;;;;16.60;15.30;;;27.60;99.90;;;;;;4957272;28;20468;-69
2021/07/14 14:25:38;;;;;;;17.00;15.70;;;27.60;99.90;;;;;;4958383;29;20476;-67
2021/07/14 14:28:15;;;;;;;17.53;16.23;;;27.50;99.90;;;;;;4947549;28;20467;-70
2021/07/14 14:30:44;;;;;;;19.23;17.33;;;27.30;99.90;;;;;;4957197;28;20515;-69
2021/07/14 14:33:13;;;;;;;20.47;18.87;;;27.10;99.90;;;;;;4956036;28;20476;-71
2021/07/14 14:35:41;;;;;;;18.63;17.10;;;26.90;99.90;;;;;;4956014;28;20465;-68
2021/07/14 14:38:09;;;;;;;21.53;19.50;;;26.70;99.90;;;;;;4956376;28;21031;-69
2021/07/14 14:40:37;;;;;;;21.57;19.63;;;26.60;99.90;;;;;;4949536;28;20500;-68
2021/07/14 14:43:10;;;;;;;21.63;19.63;;;26.60;99.90;;;;;;4953651;28;20468;-69
2021/07/14 14:45:37;;;;;;;20.87;19.07;;;26.60;99.90;;;;;;4954927;28;20487;-69
2021/07/14 14:48:05;;;;;;;17.67;16.17;;;26.60;99.90;;;;;;4955237;28;20457;-67
2021/07/14 14:50:33;;;;;;;21.40;19.80;;;26.50;99.90;;;;;;4956147;28;20476;-71
2021/07/14 14:53:00;;;;;;;20.43;18.83;;;26.40;99.90;;;;;;4955829;28;20460;-69
2021/07/14 14:55:27;;;;;;;19.47;17.77;;;26.30;99.90;;;;;;4956086;28;20465;-68
2021/07/14 14:57:54;;;;;;;17.97;16.37;;;26.40;99.90;;;;;;4947119;28;20525;-68
2021/07/14 15:00:23;;;;;;;19.90;18.10;;;26.30;99.90;;;;;;4940768;28;20564;-68
2021/07/14 15:02:50;;;;;;;20.70;18.23;;;26.20;99.90;;;;;;4954692;28;20992;-69
2021/07/14 15:05:19;;;;;;;22.53;20.20;;;26.30;99.90;;;;;;4956449;28;20547;-68
2021/07/14 15:07:46;;;;;;;21.03;19.37;;;26.30;99.90;;;;;;4950861;28;20472;-68
2021/07/14 15:10:15;;;;;;;19.60;17.80;;;26.40;99.90;;;;;;4954807;28;20469;-68
2021/07/14 15:12:43;;;;;;;19.23;17.67;;;26.50;99.90;;;;;;4954547;28;20875;-67
2021/07/14 15:15:11;;;;;;;20.20;18.40;;;26.70;99.90;;;;;;4954730;28;20479;-68
2021/07/14 15:17:39;;;;;;;18.67;17.23;;;26.80;99.90;;;;;;4956064;28;20492;-69
2021/07/14 15:20:08;;;;;;;19.00;17.20;;;26.80;99.90;;;;;;4955864;29;20550;-68
2021/07/14 15:22:35;;;;;;;19.63;17.93;;;26.90;99.90;;;;;;4955621;28;20464;-68
2021/07/14 15:25:09;;;;;;;18.87;17.07;;;27.20;99.90;;;;;;4955115;28;20464;-67
2021/07/14 15:30:21;;;;;;;17.63;15.57;;;27.20;99.90;;;;;;4951121;28;20835;-69
2021/07/14 15:32:49;;;;;;;20.17;18.53;;;27.40;99.90;;;;;;4955664;29;20469;-68
2021/07/14 15:35:16;;;;;;;19.00;17.50;;;27.40;99.90;;;;;;4955636;28;20468;-68
2021/07/14 15:37:43;;;;;;;18.90;17.40;;;27.30;99.90;;;;;;4955514;28;20477;-69
2021/07/14 15:40:11;;;;;;;18.83;17.37;;;27.20;99.90;;;;;;4953352;28;20469;-68
2021/07/14 15:42:37;;;;;;;19.57;17.93;;;27.20;99.90;;;;;;4954831;28;20821;-64
2021/07/14 15:45:05;;;;;;;19.00;17.60;;;27.20;99.90;;;;;;4952073;29;20817;-65
2021/07/14 15:47:32;;;;;;;18.80;17.53;;;27.10;99.90;;;;;;4956264;28;20477;-65
2021/07/14 15:50:00;;;;;;;19.03;17.53;;;27.00;99.90;;;;;;4956242;28;20524;-64
2021/07/14 15:52:26;;;;;;;19.10;17.73;;;26.90;99.90;;;;;;4954021;28;20544;-65
2021/07/14 15:54:53;;;;;;;19.87;18.30;;;26.70;99.90;;;;;;4962425;28;20476;-69
2021/07/14 15:57:20;;;;;;;20.43;18.73;;;26.70;99.90;;;;;;4958513;28;20580;-66
2021/07/14 15:59:46;;;;;;;18.23;16.63;;;26.80;99.90;;;;;;4957913;28;20473;-66
2021/07/14 16:02:13;;;;;;;15.70;14.60;;;26.80;99.90;;;;;;4970006;28;20493;-65
2021/07/14 16:04:42;;;;;;;11.20;10.40;;;26.50;99.90;;;;;;4956162;28;20473;-65
2021/07/14 16:07:10;;;;;;;10.93;10.13;;;26.30;99.90;;;;;;4954635;28;20461;-65
2021/07/14 16:09:37;;;;;;;10.33;9.70;;;26.20;99.90;;;;;;4947950;28;20961;-67
2021/07/14 16:12:04;;;;;;;7.17;6.67;;;26.20;99.90;;;;;;4952297;28;20492;-67
2021/07/14 16:14:31;;;;;;;7.40;7.00;;;26.00;99.90;;;;;;4942791;28;20583;-66
2021/07/14 16:16:58;;;;;;;7.97;7.47;;;25.90;99.90;;;;;;4951155;28;20539;-66
2021/07/14 16:19:24;;;;;;;6.63;6.10;;;25.90;99.90;;;;;;4955532;28;20572;-68
2021/07/14 16:21:51;;;;;;;6.53;6.13;;;25.80;99.90;;;;;;4956205;28;20497;-68
2021/07/14 16:24:19;;;;;;;7.47;6.97;;;25.70;99.90;;;;;;4954642;28;20465;-66
2021/07/14 16:26:46;;;;;;;6.10;5.70;;;25.70;99.90;;;;;;4962820;28;20468;-66
2021/07/14 16:29:13;;;;;;;7.33;6.70;;;25.80;99.90;;;;;;4954066;28;21041;-66
2021/07/14 16:31:40;;;;;;;6.00;5.70;;;25.70;99.90;;;;;;4954320;28;20591;-68
2021/07/14 16:34:06;;;;;;;5.70;5.40;;;25.80;99.90;;;;;;4955799;29;20468;-66
2021/07/14 16:36:33;;;;;;;5.47;5.07;;;25.70;99.90;;;;;;4956448;28;20540;-67
2021/07/14 16:39:00;;;;;;;4.17;3.97;;;25.90;99.90;;;;;;4970640;28;20492;-65